This is the latest recevied weather packets stored in our database for station/object KE7JGM-4. If no packets are shown the sender has not sent any weather packets the latest 10 day(s).
| Time | Temp. | Humidity | Pressure | Rain* | Wind** | Luminosity | Snow |
|---|---|---|---|---|---|---|---|
| 1777279517 | 3.33° C | 72% | 1015.4 hPa | 0 mm | - | - | - |
| 1777276837 | 3.89° C | 71% | 1016.2 hPa | 0 mm | - | - | - |
| 1777273237 | 5° C | 67% | 1016.2 hPa | 0 mm | - | - | - |
| 1777272317 | 5° C | 66% | 1016.2 hPa | 0 mm | - | - | - |
| 1777263337 | 8.33° C | 56% | 1016.2 hPa | 0 mm | - | - | - |
| 1777259737 | 8.33° C | 56% | 1015.4 hPa | 0 mm | - | - | - |
| 1777248017 | 9.44° C | 54% | 1013.5 hPa | 0 mm | - | - | - |
| 1777242637 | 10° C | 52% | 1013.5 hPa | 0 mm | - | - | - |
| 1777239917 | 10° C | 50% | 1013.5 hPa | 0 mm | - | - | - |
| 1777238116 | 10° C | 50% | 1014.3 hPa | 0 mm | - | - | - |
| 1777234517 | 10° C | 49% | 1014 hPa | 0 mm | - | - | - |
| 1777230916 | 10° C | 48% | 1014.1 hPa | 0 mm | - | - | - |
| 1777209316 | 6.67° C | 61% | 1010.4 hPa | 0 mm | - | - | - |
| 1777194017 | 10.56° C | 39% | 1012.3 hPa | 0 mm | - | - | - |
| 1777185018 | 11.67° C | 29% | 1014.2 hPa | 0 mm | - | - | - |
| 1777182317 | 11.67° C | 32% | 1013.9 hPa | 0 mm | - | - | - |
| 1777181417 | 11.67° C | 31% | 1013.4 hPa | 0 mm | - | - | - |
| 1777173317 | 12.22° C | 25% | 1014 hPa | 0 mm | - | - | - |
| 1777169717 | 12.22° C | 25% | 1013.3 hPa | 0 mm | - | - | - |
| 1777167017 | 13.33° C | 22% | 1013.2 hPa | 0 mm | - | - | - |
| 1777158917 | 14.44° C | 27% | 1013.5 hPa | 0 mm | - | - | - |
| 1777155336 | 16.11° C | 22% | 1015 hPa | 0 mm | - | - | - |
| 1777148116 | 15.56° C | 25% | 1015 hPa | 0 mm | - | - | - |
| 1777141816 | 13.89° C | 32% | 1015.4 hPa | 0 mm | - | - | - |
| 1777133716 | 12.22° C | 38% | 1015.2 hPa | 0 mm | - | - | - |
* Rain latest hour (hover to see other rain measurements)
** Current wind speed in m/s (hover to see current wind gust speed)